Time;durP1;ratioP1;P1;durP2;ratioP2;P2;SDS_P1;SDS_P2;PMS_P1;PMS_P2;Temp;Humidity;BMP_temperature;BMP_pressure;BME280_temperature;BME280_humidity;BME280_pressure;Samples;Min_cycle;Max_cycle;Signal;HPM_P1;HPM_P2
2021/08/02 00:01:08;;;;;;;4.88;1.13;;;12.80;99.90;;;;;;5076219;28;20012;-76
2021/08/02 00:03:59;;;;;;;5.47;0.77;;;12.90;99.90;;;;;;5093771;28;20024;-76
2021/08/02 00:06:32;;;;;;;2.67;0.88;;;12.90;99.90;;;;;;5075857;28;20024;-77
2021/08/02 00:09:06;;;;;;;5.05;0.80;;;12.90;99.90;;;;;;5076980;28;20418;-81
2021/08/02 00:11:36;;;;;;;2.13;0.13;;;12.90;99.90;;;;;;5076520;28;20134;-80
2021/08/02 00:14:05;;;;;;;2.35;0.40;;;12.90;99.90;;;;;;5094638;28;20524;-80
2021/08/02 00:16:32;;;;;;;2.42;0.47;;;13.00;99.90;;;;;;5076376;28;20110;-80
2021/08/02 00:18:58;;;;;;;4.93;0.73;;;13.00;99.90;;;;;;5076636;28;20508;-80
2021/08/02 00:21:24;;;;;;;2.15;0.10;;;13.00;99.90;;;;;;5076471;28;20020;-80
2021/08/02 00:23:49;;;;;;;2.67;0.20;;;13.00;99.90;;;;;;5076434;28;20073;-80
2021/08/02 00:26:15;;;;;;;2.50;0.20;;;13.00;99.90;;;;;;5094168;28;20024;-81
2021/08/02 00:28:41;;;;;;;4.85;0.15;;;12.90;99.90;;;;;;5095631;28;20459;-78
2021/08/02 00:31:07;;;;;;;1.85;0.10;;;12.90;99.90;;;;;;5095721;28;20017;-78
2021/08/02 00:33:33;;;;;;;3.03;0.10;;;12.90;99.90;;;;;;5077453;28;20493;-78
2021/08/02 00:36:04;;;;;;;2.55;0.00;;;12.90;99.90;;;;;;5094827;28;20207;-77
2021/08/02 00:39:05;;;;;;;2.50;0.17;;;13.00;99.90;;;;;;5094030;28;20032;-78
2021/08/02 00:42:03;;;;;;;4.68;0.00;;;13.00;99.90;;;;;;5091437;28;20063;-78
2021/08/02 00:45:05;;;;;;;1.88;0.20;;;13.00;99.90;;;;;;5095512;28;20028;-78
2021/08/02 00:47:40;;;;;;;1.40;0.03;;;13.10;99.90;;;;;;5094837;28;20024;-76
2021/08/02 00:50:13;;;;;;;1.73;0.00;;;13.10;99.90;;;;;;5075231;28;20503;-76
2021/08/02 00:52:42;;;;;;;1.05;0.03;;;13.10;99.90;;;;;;5075591;28;20016;-77
2021/08/02 00:55:09;;;;;;;4.32;0.03;;;13.20;99.90;;;;;;5075801;28;20525;-78
2021/08/02 00:57:37;;;;;;;2.45;0.20;;;13.20;99.90;;;;;;5093866;28;20020;-78
2021/08/02 01:00:07;;;;;;;1.98;0.10;;;13.50;99.90;;;;;;5094012;28;20547;-78
2021/08/02 01:02:39;;;;;;;3.35;0.00;;;13.30;99.90;;;;;;5095062;28;20020;-78
2021/08/02 01:05:08;;;;;;;1.08;0.00;;;13.30;99.90;;;;;;5075859;28;20039;-77
2021/08/02 01:07:36;;;;;;;;;;;13.30;99.90;;;;;;5075944;28;20048;-78
2021/08/02 01:10:02;;;;;;;4.07;0.00;;;13.30;99.90;;;;;;5075337;28;19958;-77
2021/08/02 01:12:32;;;;;;;0.30;0.20;;;13.40;99.90;;;;;;5093516;28;20028;-77
2021/08/02 01:14:58;;;;;;;3.40;0.00;;;13.40;99.90;;;;;;5075077;28;20031;-77
2021/08/02 01:17:24;;;;;;;0.65;0.00;;;13.40;99.90;;;;;;5093235;28;20132;-77
2021/08/02 01:19:50;;;;;;;3.53;0.00;;;13.40;99.90;;;;;;5075071;28;20119;-77
2021/08/02 01:22:27;;;;;;;1.48;0.10;;;13.40;99.90;;;;;;5093203;28;20024;-77
2021/08/02 01:24:53;;;;;;;3.40;0.00;;;13.40;99.90;;;;;;5093095;28;20031;-77
2021/08/02 01:27:45;;;;;;;4.07;0.00;;;13.40;99.90;;;;;;5093347;28;20020;-77
2021/08/02 01:30:18;;;;;;;0.30;0.10;;;13.40;99.90;;;;;;5093034;28;20032;-77
2021/08/02 01:32:45;;;;;;;2.15;0.00;;;13.40;99.90;;;;;;5074832;28;20381;-77
2021/08/02 01:35:13;;;;;;;0.40;0.25;;;13.40;99.90;;;;;;5075109;28;20027;-77
2021/08/02 01:37:39;;;;;;;2.65;0.00;;;13.30;99.90;;;;;;5075131;28;20111;-76
2021/08/02 01:40:06;;;;;;;0.43;0.00;;;13.30;99.90;;;;;;5074730;28;20035;-76
2021/08/02 01:42:32;;;;;;;3.15;0.10;;;13.30;99.90;;;;;;5092833;28;20021;-76
2021/08/02 01:44:58;;;;;;;0.40;0.25;;;13.30;99.90;;;;;;5078542;28;20162;-79
2021/08/02 01:47:49;;;;;;;4.38;0.10;;;13.30;99.90;;;;;;5097647;28;20451;-78
2021/08/02 01:50:35;;;;;;;3.17;0.00;;;13.30;99.90;;;;;;5039288;28;20044;-78
2021/08/02 01:53:33;;;;;;;1.95;0.25;;;13.30;99.90;;;;;;5079400;28;20477;-78
2021/08/02 01:56:19;;;;;;;5.75;0.40;;;13.30;99.90;;;;;;5079731;28;20028;-78
2021/08/02 01:58:56;;;;;;;0.85;0.15;;;13.30;99.90;;;;;;5098020;28;20020;-77
2021/08/02 02:01:24;;;;;;;2.28;0.00;;;13.30;99.90;;;;;;5079332;28;20023;-78
2021/08/02 02:03:51;;;;;;;3.80;0.52;;;13.30;99.90;;;;;;5096689;28;20115;-76
2021/08/02 02:06:19;;;;;;;0.60;0.00;;;13.30;99.90;;;;;;5096208;28;20024;-76
2021/08/02 02:09:01;;;;;;;0.15;0.08;;;13.30;99.90;;;;;;5096374;28;20028;-76
2021/08/02 02:11:28;;;;;;;4.63;0.85;;;13.30;99.90;;;;;;5078001;28;20538;-76
2021/08/02 02:13:58;;;;;;;3.53;0.17;;;13.30;99.90;;;;;;5078049;28;20024;-77
2021/08/02 02:16:26;;;;;;;1.17;0.00;;;13.30;99.90;;;;;;5096572;28;20496;-78
2021/08/02 02:18:56;;;;;;;1.42;0.00;;;13.30;99.90;;;;;;5096847;28;20028;-78
2021/08/02 02:21:27;;;;;;;2.08;0.00;;;13.30;99.90;;;;;;5096718;28;20035;-78
2021/08/02 02:23:54;;;;;;;1.02;0.00;;;13.30;99.90;;;;;;5096411;28;20520;-80
2021/08/02 02:26:22;;;;;;;0.75;0.28;;;13.30;99.90;;;;;;5079032;28;20028;-78
2021/08/02 02:28:47;;;;;;;1.85;0.30;;;13.30;99.90;;;;;;5078535;28;20048;-77
2021/08/02 02:31:14;;;;;;;3.00;0.05;;;13.20;99.90;;;;;;5095578;28;20070;-77
2021/08/02 02:33:40;;;;;;;3.40;0.00;;;13.20;99.90;;;;;;5095711;28;20028;-77
2021/08/02 02:36:06;;;;;;;0.10;0.00;;;13.20;99.90;;;;;;5095793;28;20397;-77
2021/08/02 02:38:34;;;;;;;3.83;0.00;;;13.20;99.90;;;;;;5095745;28;20016;-77
2021/08/02 02:41:00;;;;;;;1.05;0.00;;;13.20;99.90;;;;;;5095804;28;20027;-77
2021/08/02 02:43:27;;;;;;;0.93;0.00;;;13.30;99.90;;;;;;5077371;28;20023;-77
2021/08/02 02:45:53;;;;;;;2.20;0.22;;;13.10;99.90;;;;;;5096183;28;20107;-78
2021/08/02 02:48:19;;;;;;;0.25;0.00;;;13.10;99.90;;;;;;5077203;28;20066;-76
2021/08/02 02:50:48;;;;;;;1.85;0.05;;;13.10;99.90;;;;;;5095264;28;20032;-76
2021/08/02 02:53:18;;;;;;;0.10;0.00;;;13.10;99.90;;;;;;5077132;28;20473;-76
2021/08/02 02:55:46;;;;;;;1.23;0.00;;;13.10;99.90;;;;;;5076013;28;20055;-76
2021/08/02 02:58:12;;;;;;;0.63;0.00;;;13.00;99.90;;;;;;5095411;28;20024;-76
2021/08/02 03:00:38;;;;;;;0.28;0.00;;;13.00;99.90;;;;;;5095368;28;20020;-81
2021/08/02 03:03:06;;;;;;;1.92;0.10;;;13.00;99.90;;;;;;5077601;28;20041;-81
2021/08/02 03:05:36;;;;;;;0.57;0.00;;;12.90;99.90;;;;;;5077733;28;20035;-81
2021/08/02 03:08:04;;;;;;;1.40;0.00;;;12.80;99.90;;;;;;5095999;28;20020;-81
2021/08/02 03:10:30;;;;;;;2.60;0.30;;;12.80;99.90;;;;;;5077258;28;20451;-81
2021/08/02 03:12:56;;;;;;;0.80;0.00;;;12.70;99.90;;;;;;5095843;28;20493;-78
2021/08/02 03:15:22;;;;;;;0.98;0.00;;;12.70;99.90;;;;;;5095341;28;20020;-77
2021/08/02 03:17:48;;;;;;;1.10;0.00;;;12.60;99.90;;;;;;5077120;28;20020;-78
2021/08/02 03:20:14;;;;;;;2.97;0.05;;;12.60;99.90;;;;;;5095032;28;20107;-78
2021/08/02 03:23:04;;;;;;;3.95;0.55;;;12.50;99.90;;;;;;5076973;28;20034;-78
2021/08/02 03:25:35;;;;;;;2.35;0.00;;;12.50;99.90;;;;;;5077060;28;20024;-78
2021/08/02 03:28:32;;;;;;;3.63;0.00;;;12.40;99.90;;;;;;5095191;28;20073;-78
2021/08/02 03:31:01;;;;;;;0.10;0.00;;;12.30;99.90;;;;;;5095003;28;20448;-78
2021/08/02 03:33:39;;;;;;;2.80;0.00;;;12.30;99.90;;;;;;5078052;28;20431;-78
2021/08/02 03:36:11;;;;;;;2.97;0.75;;;12.20;99.90;;;;;;5097060;28;20111;-78
2021/08/02 03:38:39;;;;;;;0.22;0.00;;;12.20;99.90;;;;;;5096178;28;20028;-78
2021/08/02 03:41:06;;;;;;;1.02;0.00;;;12.10;99.90;;;;;;5078207;28;20051;-78
2021/08/02 03:43:33;;;;;;;3.83;0.10;;;12.10;99.90;;;;;;5096497;28;20542;-78
2021/08/02 03:46:01;;;;;;;2.65;0.28;;;12.10;99.90;;;;;;5078168;28;20028;-78
2021/08/02 03:48:27;;;;;;;2.23;0.00;;;12.00;99.90;;;;;;5077454;28;20073;-80
2021/08/02 03:50:53;;;;;;;1.67;0.00;;;12.00;99.90;;;;;;5095177;28;20022;-81
2021/08/02 03:53:19;;;;;;;3.22;0.10;;;12.00;99.90;;;;;;5077005;28;20051;-80
2021/08/02 03:55:45;;;;;;;1.30;0.00;;;12.00;99.90;;;;;;5076972;28;20481;-80
2021/08/02 03:58:11;;;;;;;2.60;0.00;;;11.90;99.90;;;;;;5077059;28;20028;-81
2021/08/02 04:00:37;;;;;;;0.95;0.00;;;11.90;99.90;;;;;;5076428;28;20035;-81
2021/08/02 04:03:06;;;;;;;2.08;0.00;;;11.90;99.90;;;;;;5094721;28;20028;-80
2021/08/02 04:05:31;;;;;;;3.38;0.00;;;11.90;99.90;;;;;;5076780;28;20024;-80
2021/08/02 04:08:00;;;;;;;0.10;0.00;;;11.80;99.90;;;;;;5076566;28;20386;-76
2021/08/02 04:10:30;;;;;;;;;;;11.80;99.90;;;;;;5094570;28;20035;-77
2021/08/02 04:12:56;;;;;;;2.15;0.00;;;11.70;99.90;;;;;;5094295;28;19904;-77
2021/08/02 04:15:22;;;;;;;3.03;0.00;;;11.70;99.90;;;;;;5076173;28;20500;-78
2021/08/02 04:17:47;;;;;;;4.38;0.55;;;11.70;99.90;;;;;;5076341;28;20484;-77
2021/08/02 04:20:18;;;;;;;1.92;0.00;;;11.70;99.90;;;;;;5076190;28;20020;-78
2021/08/02 04:22:46;;;;;;;1.98;0.03;;;11.70;99.90;;;;;;5076080;28;20024;-78
2021/08/02 04:25:12;;;;;;;0.10;0.00;;;11.70;99.90;;;;;;5094495;28;20027;-77
2021/08/02 04:27:37;;;;;;;1.30;0.00;;;11.70;99.90;;;;;;5093994;28;20020;-77
2021/08/02 04:30:04;;;;;;;2.60;0.10;;;11.70;99.90;;;;;;5093458;28;20028;-77
2021/08/02 04:32:29;;;;;;;1.20;0.30;;;11.70;99.90;;;;;;5075389;28;20012;-77
2021/08/02 04:34:55;;;;;;;2.85;0.00;;;11.70;99.90;;;;;;5093615;28;20156;-76
2021/08/02 04:37:20;;;;;;;1.38;0.15;;;11.70;99.90;;;;;;5075893;28;20020;-78
2021/08/02 04:39:46;;;;;;;1.90;0.50;;;11.70;99.90;;;;;;5075768;28;20020;-76
2021/08/02 04:42:11;;;;;;;1.20;0.00;;;11.80;99.90;;;;;;5093475;28;20032;-76
2021/08/02 04:44:37;;;;;;;2.90;0.10;;;11.90;99.90;;;;;;5075358;28;20020;-76
2021/08/02 04:47:02;;;;;;;1.85;0.35;;;11.90;99.90;;;;;;5093870;28;20103;-76
2021/08/02 04:49:28;;;;;;;0.88;0.00;;;12.00;99.90;;;;;;5075274;28;20035;-76
2021/08/02 04:51:53;;;;;;;1.17;0.15;;;12.00;99.90;;;;;;5094136;28;20028;-78
2021/08/02 04:54:19;;;;;;;2.38;0.00;;;12.10;99.90;;;;;;5093348;28;20027;-76
2021/08/02 04:56:45;;;;;;;0.77;0.10;;;12.10;99.90;;;;;;5093235;28;20020;-76
2021/08/02 04:59:10;;;;;;;3.15;0.30;;;12.20;99.90;;;;;;5093262;28;20530;-76
2021/08/02 05:01:36;;;;;;;0.85;0.00;;;12.30;99.90;;;;;;5075099;28;20028;-76
2021/08/02 05:04:01;;;;;;;1.25;0.00;;;12.40;99.90;;;;;;5088448;22;20040;-78
2021/08/02 05:06:27;;;;;;;2.05;0.20;;;12.50;99.90;;;;;;5095877;28;20458;-78
2021/08/02 05:08:52;;;;;;;0.38;0.00;;;12.50;99.90;;;;;;5076746;28;20031;-79
2021/08/02 05:11:18;;;;;;;1.00;0.03;;;12.60;99.90;;;;;;5076465;28;20024;-78
2021/08/02 05:13:43;;;;;;;2.42;0.00;;;12.60;99.90;;;;;;5094743;28;20488;-79
2021/08/02 05:16:09;;;;;;;0.75;0.10;;;12.80;99.90;;;;;;5076657;28;20120;-78
2021/08/02 05:18:35;;;;;;;0.93;0.13;;;12.90;99.90;;;;;;5076571;28;20141;-77
2021/08/02 05:21:01;;;;;;;1.02;0.10;;;13.00;99.90;;;;;;5079038;28;20049;-77
2021/08/02 05:23:26;;;;;;;1.58;0.00;;;13.10;99.90;;;;;;5097258;28;20028;-77
2021/08/02 05:25:52;;;;;;;2.72;0.00;;;13.20;99.90;;;;;;5097061;28;20381;-77
2021/08/02 05:28:19;;;;;;;3.72;0.00;;;13.30;99.90;;;;;;5096969;28;20571;-76
2021/08/02 05:30:46;;;;;;;1.65;0.10;;;13.40;99.90;;;;;;5097182;28;20103;-76
2021/08/02 05:33:12;;;;;;;2.63;0.25;;;13.40;99.90;;;;;;5096814;28;20016;-76
2021/08/02 05:35:38;;;;;;;1.00;0.17;;;13.60;99.90;;;;;;5096762;28;20081;-76
2021/08/02 05:38:03;;;;;;;1.08;0.30;;;13.70;99.90;;;;;;5097344;28;20032;-79
2021/08/02 05:40:29;;;;;;;2.47;0.00;;;13.80;99.90;;;;;;5078784;28;20031;-80
2021/08/02 05:42:54;;;;;;;1.52;0.10;;;13.90;99.90;;;;;;5079298;28;20020;-81
2021/08/02 05:45:23;;;;;;;1.70;0.00;;;15.60;99.90;;;;;;5098061;28;20035;-81
2021/08/02 05:47:52;;;;;;;5.35;0.00;;;14.10;99.90;;;;;;5097275;28;20476;-77
2021/08/02 05:50:17;;;;;;;1.17;0.20;;;14.30;99.90;;;;;;5078186;28;20393;-77
2021/08/02 05:52:43;;;;;;;1.33;0.00;;;14.40;99.90;;;;;;5096747;28;20103;-79
2021/08/02 05:55:10;;;;;;;2.92;0.40;;;14.50;99.90;;;;;;5097228;28;20362;-79
2021/08/02 05:57:36;;;;;;;4.30;0.10;;;14.70;99.90;;;;;;5097306;28;20020;-79
2021/08/02 06:00:04;;;;;;;2.50;0.63;;;15.40;99.90;;;;;;5078602;28;20085;-79
2021/08/02 06:02:30;;;;;;;1.38;0.00;;;15.00;99.90;;;;;;5079191;28;20020;-79
2021/08/02 06:04:56;;;;;;;3.45;0.10;;;15.10;99.90;;;;;;5096984;28;20035;-80
2021/08/02 06:07:21;;;;;;;1.98;0.05;;;15.30;99.90;;;;;;5080025;28;20016;-80
2021/08/02 06:09:48;;;;;;;2.90;0.00;;;15.30;99.90;;;;;;5097606;28;20099;-80
2021/08/02 06:12:13;;;;;;;1.65;0.00;;;15.40;99.90;;;;;;5079328;28;20015;-80
2021/08/02 06:14:39;;;;;;;1.75;0.10;;;15.40;99.90;;;;;;5078579;28;20024;-79
2021/08/02 06:17:05;;;;;;;2.00;0.00;;;15.50;99.90;;;;;;5077873;28;20027;-76
2021/08/02 06:19:30;;;;;;;0.32;0.00;;;15.70;99.90;;;;;;5077903;28;20474;-78
2021/08/02 06:21:56;;;;;;;1.85;0.43;;;15.80;99.90;;;;;;5078251;28;20033;-80
2021/08/02 06:24:21;;;;;;;3.50;0.00;;;15.90;99.90;;;;;;5096509;28;20024;-76
2021/08/02 06:26:47;;;;;;;1.40;0.00;;;16.10;99.90;;;;;;5078004;28;20119;-78
2021/08/02 06:29:12;;;;;;;1.83;0.00;;;16.20;99.90;;;;;;5078015;28;20056;-79
2021/08/02 06:31:38;;;;;;;2.53;0.00;;;16.30;99.90;;;;;;5095990;28;20013;-79
2021/08/02 06:34:04;;;;;;;0.47;0.25;;;16.40;99.90;;;;;;5095998;28;20026;-79
2021/08/02 06:36:29;;;;;;;1.45;0.00;;;16.60;99.90;;;;;;5077974;28;20024;-79
2021/08/02 06:38:55;;;;;;;2.28;0.30;;;16.70;99.90;;;;;;5095571;28;20546;-77
2021/08/02 06:41:20;;;;;;;0.40;0.00;;;16.90;99.90;;;;;;5077440;28;20020;-77
2021/08/02 06:43:46;;;;;;;0.28;0.10;;;17.10;99.90;;;;;;5095487;28;20024;-77
2021/08/02 06:46:11;;;;;;;0.82;0.00;;;17.20;99.90;;;;;;5095500;28;20144;-77
2021/08/02 06:48:40;;;;;;;1.60;0.00;;;17.40;99.90;;;;;;5077379;28;20043;-80
2021/08/02 06:51:08;;;;;;;0.00;0.00;;;17.50;99.90;;;;;;5077537;28;20016;-77
2021/08/02 06:53:33;;;;;;;1.80;0.00;;;17.50;99.90;;;;;;5095963;28;20016;-77
2021/08/02 06:55:59;;;;;;;1.05;0.10;;;16.90;99.90;;;;;;5095666;28;20020;-78
2021/08/02 06:58:24;;;;;;;2.50;0.00;;;17.30;99.90;;;;;;5096892;28;20020;-79
2021/08/02 07:00:50;;;;;;;3.17;0.30;;;18.40;99.90;;;;;;5096459;28;20023;-77
2021/08/02 07:03:15;;;;;;;2.17;0.00;;;17.40;99.90;;;;;;5076969;28;20111;-77
2021/08/02 07:05:41;;;;;;;0.45;0.00;;;17.50;99.90;;;;;;5077027;28;20028;-77
2021/08/02 07:08:07;;;;;;;1.75;0.00;;;17.70;99.90;;;;;;5095126;28;20024;-77
2021/08/02 07:10:32;;;;;;;0.35;0.00;;;17.70;99.90;;;;;;5095165;28;20031;-77
2021/08/02 07:12:58;;;;;;;0.75;0.00;;;17.70;99.90;;;;;;5076974;28;20024;-77
2021/08/02 07:15:23;;;;;;;1.00;0.00;;;17.70;99.90;;;;;;5095455;28;20404;-77
2021/08/02 07:17:49;;;;;;;0.90;0.00;;;17.80;99.90;;;;;;5094927;28;20016;-77
2021/08/02 07:20:15;;;;;;;1.23;0.00;;;17.90;99.90;;;;;;5094786;28;20395;-77
2021/08/02 07:22:40;;;;;;;1.80;0.00;;;18.00;99.90;;;;;;5095025;28;20024;-77
2021/08/02 07:25:06;;;;;;;0.93;0.30;;;18.20;99.90;;;;;;5094868;28;20481;-78
2021/08/02 07:27:32;;;;;;;2.63;0.00;;;18.50;99.90;;;;;;5094819;28;20032;-76
2021/08/02 07:29:57;;;;;;;0.70;0.00;;;18.60;99.90;;;;;;5094471;28;20027;-76
2021/08/02 07:32:23;;;;;;;2.10;0.00;;;18.50;99.90;;;;;;5076962;28;20035;-79
2021/08/02 07:34:48;;;;;;;3.35;0.20;;;18.50;99.90;;;;;;5077483;28;20041;-79
2021/08/02 07:37:14;;;;;;;1.85;0.00;;;18.50;99.90;;;;;;5077269;28;20443;-79
2021/08/02 07:39:39;;;;;;;1.75;0.00;;;18.50;99.90;;;;;;5095106;28;20050;-79
2021/08/02 07:42:05;;;;;;;0.60;0.00;;;18.50;99.90;;;;;;5076763;28;20128;-79
2021/08/02 07:44:31;;;;;;;2.20;0.08;;;18.70;99.90;;;;;;5076710;28;20043;-79
2021/08/02 07:46:57;;;;;;;0.32;0.00;;;18.70;99.90;;;;;;5095244;28;20016;-78
2021/08/02 07:49:23;;;;;;;1.45;0.10;;;18.90;99.90;;;;;;5076358;28;20130;-78
2021/08/02 07:51:48;;;;;;;2.03;0.00;;;19.10;99.90;;;;;;5076297;28;20012;-79
2021/08/02 07:54:14;;;;;;;2.33;0.00;;;19.20;99.90;;;;;;5076520;28;20481;-79
2021/08/02 07:56:39;;;;;;;2.40;0.30;;;19.30;99.90;;;;;;5095646;28;20344;-79
2021/08/02 07:59:05;;;;;;;2.83;0.00;;;19.50;99.90;;;;;;5094597;28;20059;-79
2021/08/02 08:01:31;;;;;;;1.55;0.00;;;19.50;99.90;;;;;;5094324;28;20078;-78
2021/08/02 08:03:56;;;;;;;4.15;0.00;;;19.60;99.90;;;;;;5094513;28;20090;-80
2021/08/02 08:06:22;;;;;;;1.55;0.15;;;19.40;99.90;;;;;;5076251;28;20103;-80
2021/08/02 08:08:48;;;;;;;1.75;0.00;;;19.20;99.90;;;;;;5076284;28;20020;-80
2021/08/02 08:11:13;;;;;;;3.28;0.00;;;18.90;99.90;;;;;;5075913;28;20385;-77
2021/08/02 08:13:39;;;;;;;1.98;0.00;;;18.60;99.90;;;;;;5076184;28;20027;-79
2021/08/02 08:16:06;;;;;;;1.05;0.10;;;18.30;99.90;;;;;;5094496;28;20041;-78
2021/08/02 08:18:31;;;;;;;0.88;0.00;;;18.00;99.90;;;;;;5094571;28;20020;-78
2021/08/02 08:20:59;;;;;;;1.48;0.00;;;17.70;99.90;;;;;;5077197;28;20055;-78
2021/08/02 08:23:25;;;;;;;1.13;0.00;;;17.60;99.90;;;;;;5076372;28;20028;-78
2021/08/02 08:25:51;;;;;;;1.65;0.10;;;17.50;99.90;;;;;;5093985;28;20024;-78
2021/08/02 08:28:16;;;;;;;1.33;0.00;;;17.40;99.90;;;;;;5093861;28;20028;-78
2021/08/02 08:30:42;;;;;;;3.17;0.00;;;17.40;99.90;;;;;;5075698;28;20033;-79
2021/08/02 08:33:08;;;;;;;4.93;0.28;;;17.50;99.90;;;;;;5075819;28;20019;-80
2021/08/02 08:35:37;;;;;;;0.22;0.03;;;17.60;99.90;;;;;;5075787;28;20665;-80
2021/08/02 08:38:02;;;;;;;;;;;18.50;99.90;;;;;;5076157;28;20016;-80
2021/08/02 08:40:29;;;;;;;4.15;0.17;;;17.80;99.90;;;;;;5075696;28;19904;-80
2021/08/02 08:42:55;;;;;;;2.92;0.00;;;17.90;99.90;;;;;;5094430;28;20073;-80
2021/08/02 08:45:21;;;;;;;3.15;0.00;;;18.00;99.90;;;;;;5093723;28;20030;-80
2021/08/02 08:47:47;;;;;;;2.65;0.10;;;18.10;99.90;;;;;;5093883;28;20052;-78
2021/08/02 08:50:12;;;;;;;0.75;0.00;;;18.10;99.90;;;;;;5075478;28;20016;-78
2021/08/02 08:52:38;;;;;;;0.22;0.00;;;18.20;99.90;;;;;;5075425;28;20500;-78
2021/08/02 08:55:06;;;;;;;1.30;0.17;;;18.40;99.90;;;;;;5079788;28;20492;-78
2021/08/02 08:57:31;;;;;;;2.95;0.13;;;18.50;99.90;;;;;;5079742;28;20024;-78
2021/08/02 08:59:57;;;;;;;1.65;0.00;;;18.60;99.90;;;;;;5079505;28;20077;-79
2021/08/02 09:02:29;;;;;;;1.50;0.00;;;18.80;99.90;;;;;;5097772;28;20028;-79
2021/08/02 09:05:00;;;;;;;1.10;0.00;;;18.90;99.90;;;;;;5097443;28;20055;-80
2021/08/02 09:07:33;;;;;;;1.48;0.55;;;19.00;99.90;;;;;;5079361;28;20078;-77
2021/08/02 09:09:59;;;;;;;3.92;0.00;;;19.10;99.90;;;;;;5097520;28;20032;-77
2021/08/02 09:12:25;;;;;;;3.45;0.15;;;19.20;99.90;;;;;;5097307;28;20020;-77
2021/08/02 09:14:59;;;;;;;3.05;0.10;;;19.30;99.90;;;;;;5097227;28;20021;-77
2021/08/02 09:17:29;;;;;;;3.17;0.00;;;19.30;99.90;;;;;;5097833;28;20024;-75
2021/08/02 09:19:55;;;;;;;1.85;0.00;;;19.20;99.90;;;;;;5097471;28;20477;-77
2021/08/02 09:22:34;;;;;;;1.73;0.13;;;19.30;99.90;;;;;;5097209;28;20027;-76
2021/08/02 09:25:08;;;;;;;1.05;0.00;;;19.40;99.90;;;;;;5097296;28;20397;-76
2021/08/02 09:27:35;;;;;;;0.52;0.00;;;19.70;99.90;;;;;;5097313;28;20016;-75
2021/08/02 09:30:20;;;;;;;3.75;0.00;;;19.60;99.90;;;;;;5079061;28;20020;-78
2021/08/02 09:33:05;;;;;;;1.42;0.00;;;19.70;99.90;;;;;;5097527;28;20020;-78
2021/08/02 09:35:39;;;;;;;2.55;0.43;;;20.00;99.90;;;;;;5097268;28;20473;-77
2021/08/02 09:38:11;;;;;;;2.45;0.00;;;20.50;99.90;;;;;;5096858;28;20018;-77
2021/08/02 09:40:42;;;;;;;0.73;0.10;;;20.90;99.90;;;;;;5078500;28;20028;-77
2021/08/02 09:43:31;;;;;;;1.75;0.00;;;21.40;99.90;;;;;;5096734;28;20141;-77
2021/08/02 09:46:02;;;;;;;0.28;0.00;;;21.60;99.30;;;;;;5078696;28;20024;-77
2021/08/02 09:48:34;;;;;;;0.38;0.10;;;21.80;95.20;;;;;;5097453;28;20024;-80
2021/08/02 09:51:14;;;;;;;2.63;0.38;;;21.60;95.60;;;;;;5096490;28;20437;-75
2021/08/02 09:53:58;;;;;;;1.17;0.00;;;21.70;93.50;;;;;;5096547;28;20032;-76
2021/08/02 09:56:25;;;;;;;2.42;0.35;;;21.70;95.20;;;;;;5096454;28;20024;-77
2021/08/02 09:58:51;;;;;;;2.42;0.20;;;21.80;95.50;;;;;;5096671;28;20477;-76
2021/08/02 10:01:20;;;;;;;0.10;0.00;;;21.70;95.20;;;;;;5096230;28;20024;-75
2021/08/02 10:03:47;;;;;;;1.10;0.15;;;21.60;91.40;;;;;;5096527;28;20103;-77
2021/08/02 10:06:15;;;;;;;2.95;0.00;;;21.50;94.00;;;;;;5097179;28;20024;-78
2021/08/02 10:08:42;;;;;;;0.13;0.00;;;21.60;95.40;;;;;;5078284;28;20035;-78
2021/08/02 10:11:08;;;;;;;0.25;0.00;;;21.60;95.10;;;;;;5096807;28;20481;-79
2021/08/02 10:13:43;;;;;;;1.00;0.00;;;21.60;94.60;;;;;;5079268;28;20020;-78
2021/08/02 10:16:13;;;;;;;1.13;0.00;;;21.60;94.30;;;;;;5096732;28;20104;-77
2021/08/02 10:18:39;;;;;;;1.17;0.00;;;21.60;94.30;;;;;;5097060;28;20023;-79
2021/08/02 10:21:11;;;;;;;1.85;0.00;;;21.50;91.90;;;;;;5096731;28;20081;-75
2021/08/02 10:23:40;;;;;;;4.90;0.00;;;21.40;93.60;;;;;;5078851;28;20056;-78
2021/08/02 10:26:29;;;;;;;1.85;0.00;;;21.40;93.90;;;;;;5077941;28;20031;-75
2021/08/02 10:28:58;;;;;;;1.27;0.00;;;21.40;94.60;;;;;;5077556;28;20028;-75
2021/08/02 10:31:26;;;;;;;2.60;0.00;;;21.40;95.40;;;;;;5096040;28;20066;-77
2021/08/02 10:33:52;;;;;;;1.15;0.00;;;21.50;93.80;;;;;;5095742;28;20161;-77
2021/08/02 10:36:20;;;;;;;1.75;0.00;;;21.40;94.40;;;;;;5077617;28;20026;-77
2021/08/02 10:38:50;;;;;;;0.55;0.00;;;21.60;96.80;;;;;;5077454;28;20024;-77
2021/08/02 10:41:32;;;;;;;1.60;0.00;;;21.70;95.20;;;;;;5095514;28;20075;-76
2021/08/02 10:44:14;;;;;;;1.73;0.20;;;21.70;94.40;;;;;;5077441;28;20035;-76
2021/08/02 10:46:40;;;;;;;0.50;0.00;;;21.70;91.90;;;;;;5077455;28;20446;-76
2021/08/02 10:49:14;;;;;;;1.23;0.00;;;21.60;90.60;;;;;;5095620;28;20485;-76
2021/08/02 10:51:46;;;;;;;0.85;0.00;;;21.60;91.30;;;;;;5110016;22;20036;-78
2021/08/02 10:54:12;;;;;;;2.13;0.00;;;22.40;87.30;;;;;;5096676;28;20020;-78
2021/08/02 10:56:37;;;;;;;3.70;0.10;;;21.80;90.60;;;;;;5077725;28;20496;-77
2021/08/02 10:59:03;;;;;;;1.70;0.00;;;21.90;91.50;;;;;;5095763;28;20031;-77
2021/08/02 11:01:29;;;;;;;0.60;0.00;;;24.80;88.60;;;;;;5095163;28;20030;-80
2021/08/02 11:03:57;;;;;;;1.23;0.00;;;22.00;89.20;;;;;;5095204;28;20049;-77
2021/08/02 11:06:26;;;;;;;0.03;0.00;;;21.60;84.20;;;;;;5094903;28;20028;-77
2021/08/02 11:08:54;;;;;;;1.95;0.00;;;22.20;82.20;;;;;;5076799;28;20045;-77
2021/08/02 11:11:26;;;;;;;1.20;0.10;;;22.50;84.70;;;;;;5094928;28;20035;-79
2021/08/02 11:14:10;;;;;;;1.90;0.00;;;22.50;78.30;;;;;;5095077;28;20024;-77
2021/08/02 11:16:42;;;;;;;0.40;0.00;;;22.40;77.60;;;;;;5094470;28;20481;-77
2021/08/02 11:19:18;;;;;;;0.60;0.00;;;22.40;79.60;;;;;;5077187;28;20039;-77
2021/08/02 11:21:45;;;;;;;1.80;0.00;;;22.30;79.40;;;;;;5095048;28;20032;-77
2021/08/02 11:24:12;;;;;;;0.68;0.00;;;22.40;84.00;;;;;;5076632;28;20027;-78
2021/08/02 11:26:53;;;;;;;0.45;0.00;;;22.60;84.00;;;;;;5076861;28;20038;-78
2021/08/02 11:29:27;;;;;;;0.77;0.00;;;22.50;78.10;;;;;;5077173;28;20024;-78
2021/08/02 11:31:57;;;;;;;0.82;0.00;;;22.50;79.60;;;;;;5076639;28;20381;-78
2021/08/02 11:34:23;;;;;;;2.78;0.73;;;22.60;84.20;;;;;;5095379;28;20027;-78
2021/08/02 11:37:04;;;;;;;2.35;0.00;;;22.60;79.80;;;;;;5076862;28;20093;-78
2021/08/02 11:39:37;;;;;;;2.28;0.22;;;22.60;79.20;;;;;;5094891;28;20024;-78
2021/08/02 11:42:03;;;;;;;0.40;0.00;;;22.60;80.00;;;;;;5094772;28;20027;-78
2021/08/02 11:44:32;;;;;;;0.25;0.00;;;22.70;85.20;;;;;;5076629;28;20025;-78
2021/08/02 11:46:59;;;;;;;1.58;0.00;;;22.80;80.20;;;;;;5076583;28;20028;-80
2021/08/02 11:49:27;;;;;;;1.83;0.15;;;22.80;73.40;;;;;;5094267;28;20020;-76
2021/08/02 11:51:54;;;;;;;5.53;0.35;;;22.40;74.60;;;;;;5075799;28;20024;-76
2021/08/02 11:54:21;;;;;;;0.67;0.00;;;22.00;74.80;;;;;;5094215;28;20594;-77
2021/08/02 11:56:47;;;;;;;2.42;0.00;;;22.30;76.80;;;;;;5094801;28;20284;-78
2021/08/02 11:59:23;;;;;;;0.98;0.00;;;22.20;76.20;;;;;;5076361;28;20086;-78
2021/08/02 12:01:52;;;;;;;1.17;0.43;;;22.30;77.60;;;;;;5076074;28;20027;-77
2021/08/02 12:04:19;;;;;;;3.80;0.00;;;22.40;78.80;;;;;;5075936;28;20497;-77
2021/08/02 12:06:56;;;;;;;1.85;0.10;;;22.40;74.40;;;;;;5094482;28;20504;-80
2021/08/02 12:09:33;;;;;;;0.10;0.00;;;22.50;82.30;;;;;;5094608;28;20481;-80
2021/08/02 12:12:01;;;;;;;2.03;0.10;;;22.50;76.50;;;;;;5094925;28;20016;-80
2021/08/02 12:14:30;;;;;;;1.80;0.00;;;22.60;77.20;;;;;;5076899;28;20542;-80
2021/08/02 12:17:07;;;;;;;2.03;0.00;;;22.60;77.00;;;;;;5094318;28;20410;-75
2021/08/02 12:19:44;;;;;;;1.05;0.00;;;22.70;75.30;;;;;;5093881;28;20104;-75
2021/08/02 12:22:10;;;;;;;0.35;0.00;;;22.40;79.10;;;;;;5094058;28;20031;-76
2021/08/02 12:24:46;;;;;;;2.42;0.00;;;22.40;82.10;;;;;;5075582;28;20039;-76
2021/08/02 12:27:15;;;;;;;0.52;0.00;;;22.20;77.00;;;;;;5075321;28;20389;-76
2021/08/02 12:29:40;;;;;;;2.28;0.08;;;22.00;79.80;;;;;;5075281;28;20067;-76
2021/08/02 12:32:06;;;;;;;4.60;0.43;;;22.00;81.90;;;;;;5075774;28;20023;-77
2021/08/02 12:34:32;;;;;;;3.42;0.00;;;21.90;83.30;;;;;;5093949;28;20106;-77
2021/08/02 12:36:59;;;;;;;1.80;0.00;;;21.70;78.20;;;;;;5094062;28;20464;-77
2021/08/02 12:39:27;;;;;;;0.43;0.00;;;21.40;78.90;;;;;;5093495;28;20040;-77
2021/08/02 12:41:53;;;;;;;2.42;0.00;;;21.30;85.10;;;;;;5075313;28;20028;-75
2021/08/02 12:44:19;;;;;;;1.15;0.00;;;21.30;85.40;;;;;;5093686;28;20031;-75
2021/08/02 12:46:44;;;;;;;1.40;0.00;;;21.30;88.10;;;;;;5093693;28;20560;-76
2021/08/02 12:49:10;;;;;;;2.13;0.00;;;21.30;87.20;;;;;;5075414;28;20085;-77
2021/08/02 12:51:35;;;;;;;0.17;0.00;;;21.20;86.50;;;;;;5093724;28;20081;-77
2021/08/02 12:54:01;;;;;;;4.95;0.00;;;21.20;82.20;;;;;;5075358;28;20355;-77
2021/08/02 12:56:26;;;;;;;1.98;0.00;;;21.30;88.10;;;;;;5093819;28;20028;-77